Time;durP1;ratioP1;P1;durP2;ratioP2;P2;SDS_P1;SDS_P2;PMS_P1;PMS_P2;Temp;Humidity;BMP_temperature;BMP_pressure;BME280_temperature;BME280_humidity;BME280_pressure;Samples;Min_cycle;Max_cycle;Signal;HPM_P1;HPM_P2
2022/09/21 00:00:29;;;;;;;;;;;;;;;15.14;53.62;99799.69;5012230;28;20034;-84
2022/09/21 00:02:56;;;;;;;0.40;0.40;;;;;;;14.94;53.24;99767.59;5012033;28;19952;-85
2022/09/21 00:05:22;;;;;;;0.28;0.28;;;;;;;15.12;53.11;99780.28;5011627;28;20497;-84
2022/09/21 00:07:48;;;;;;;16.17;1.20;;;;;;;14.99;53.24;99773.63;5011791;28;20030;-84
2022/09/21 00:10:13;;;;;;;0.85;0.85;;;;;;;14.90;52.63;99774.78;5012110;28;20489;-84
2022/09/21 00:12:39;;;;;;;;;;;;;;;15.03;52.38;99792.06;5012020;28;20066;-84
2022/09/21 00:15:07;;;;;;;0.30;0.30;;;;;;;14.97;52.99;99767.50;5010996;28;19944;-84
2022/09/21 00:17:33;;;;;;;0.55;0.55;;;;;;;14.83;53.54;99792.69;5011313;28;20389;-84
2022/09/21 00:20:00;;;;;;;0.13;0.13;;;;;;;14.64;52.92;99755.22;5011232;28;20045;-85
2022/09/21 00:22:26;;;;;;;0.43;0.43;;;;;;;14.68;52.95;99798.47;5011193;28;20026;-85
2022/09/21 00:24:51;;;;;;;0.90;0.90;;;;;;;14.65;52.73;99782.63;5011580;28;20044;-84
2022/09/21 00:27:16;;;;;;;1.80;1.70;;;;;;;14.67;52.91;99810.00;5011471;28;20061;-84
2022/09/21 00:29:42;;;;;;;1.20;0.60;;;;;;;14.53;52.41;99772.34;5011790;28;20054;-84
2022/09/21 00:32:07;;;;;;;;;;;;;;;14.53;52.65;99789.13;5012354;28;20030;-85
2022/09/21 00:34:32;;;;;;;;;;;;;;;14.30;53.22;99795.13;5011313;28;19922;-84
2022/09/21 00:36:58;;;;;;;0.60;0.60;;;;;;;14.17;52.69;99769.88;5011328;28;20016;-84
2022/09/21 00:39:23;;;;;;;3.20;2.20;;;;;;;14.14;52.54;99763.72;5011237;28;20044;-84
2022/09/21 00:41:52;;;;;;;0.88;0.88;;;;;;;14.17;52.67;99759.25;5011640;28;20033;-84
2022/09/21 00:44:31;;;;;;;0.30;0.30;;;;;;;14.25;52.85;99775.81;5011491;28;20088;-84
2022/09/21 00:47:11;;;;;;;2.92;1.73;;;;;;;14.33;53.03;99801.22;5011398;28;20026;-84
2022/09/21 00:49:39;;;;;;;1.95;1.60;;;;;;;14.21;53.47;99771.50;5011191;28;20054;-84
2022/09/21 00:52:07;;;;;;;0.95;0.93;;;;;;;14.04;54.02;99750.75;5011071;28;20057;-84
2022/09/21 00:54:40;;;;;;;0.52;0.52;;;;;;;14.06;53.66;99755.13;5006133;28;20026;-84
2022/09/21 00:57:06;;;;;;;0.70;0.70;;;;;;;14.08;52.65;99771.00;5010803;28;20036;-85
2022/09/21 00:59:36;;;;;;;0.30;0.30;;;;;;;13.93;52.59;99781.13;5011257;28;20029;-84
2022/09/21 01:02:03;;;;;;;0.43;0.43;;;;;;;13.92;52.52;99779.38;5011542;28;20026;-84
2022/09/21 01:04:30;;;;;;;0.75;0.75;;;;;;;14.05;52.03;99784.34;5010831;28;20064;-85
2022/09/21 01:07:01;;;;;;;0.30;0.30;;;;;;;13.93;51.13;99757.25;5011559;28;20052;-84
2022/09/21 01:09:27;;;;;;;2.30;0.70;;;;;;;14.01;50.94;99767.66;5010816;28;20040;-84
2022/09/21 01:12:02;;;;;;;0.85;0.85;;;;;;;14.28;50.89;99789.00;5011247;28;20032;-84
2022/09/21 01:14:45;;;;;;;0.57;0.57;;;;;;;14.31;49.77;99789.75;4991605;28;20038;-84
2022/09/21 01:17:36;;;;;;;1.00;1.00;;;;;;;14.19;48.81;99742.38;4997961;28;20129;-84
2022/09/21 01:20:29;;;;;;;0.52;0.52;;;;;;;14.64;48.36;99794.16;4990026;28;20045;-84
2022/09/21 01:23:06;;;;;;;0.88;0.88;;;;;;;14.66;47.04;99793.22;5010527;28;20026;-84
2022/09/21 01:25:34;;;;;;;0.55;0.55;;;;;;;14.44;47.78;99792.94;5011095;28;20034;-84
2022/09/21 01:28:12;;;;;;;0.95;0.95;;;;;;;14.58;47.47;99784.59;5010927;28;20030;-85
2022/09/21 01:30:41;;;;;;;0.20;0.20;;;;;;;14.53;47.74;99756.44;5010948;28;20532;-85
2022/09/21 01:33:29;;;;;;;0.20;0.20;;;;;;;14.49;47.46;99755.66;5011001;28;20026;-85
2022/09/21 01:36:00;;;;;;;0.20;0.20;;;;;;;14.48;46.50;99733.53;5010911;28;20044;-84
2022/09/21 01:38:30;;;;;;;0.35;0.35;;;;;;;14.29;47.32;99735.03;5010161;28;20512;-84
2022/09/21 01:41:03;;;;;;;1.65;1.55;;;;;;;14.46;47.72;99771.69;5011139;28;20107;-84
2022/09/21 01:43:42;;;;;;;0.20;0.20;;;;;;;14.32;46.84;99737.59;5010668;28;20050;-85
2022/09/21 01:46:14;;;;;;;0.25;0.25;;;;;;;14.49;47.32;99776.91;5010519;28;20061;-84
2022/09/21 01:48:45;;;;;;;0.30;0.30;;;;;;;14.29;46.77;99733.22;5010541;28;20042;-85
2022/09/21 01:51:14;;;;;;;0.30;0.30;;;;;;;14.38;46.64;99724.13;5011236;28;20029;-84
2022/09/21 01:54:00;;;;;;;0.32;0.32;;;;;;;14.56;46.57;99749.22;5010407;28;20037;-84
2022/09/21 01:56:34;;;;;;;0.45;0.45;;;;;;;14.50;46.98;99741.44;5010570;28;20041;-84
2022/09/21 01:58:59;;;;;;;0.28;0.28;;;;;;;14.78;46.99;99778.69;5010930;28;20049;-84
2022/09/21 02:01:28;;;;;;;0.28;0.28;;;;;;;14.92;46.09;99774.72;5010309;28;20034;-84
2022/09/21 02:03:58;;;;;;;0.35;0.35;;;;;;;14.96;46.13;99768.41;5010638;28;20060;-84
2022/09/21 02:06:27;;;;;;;0.45;0.45;;;;;;;14.80;46.17;99722.88;5011006;28;20033;-84
2022/09/21 02:08:52;;;;;;;0.20;0.20;;;;;;;14.74;46.48;99761.13;5014160;28;20671;-84
2022/09/21 02:11:18;;;;;;;0.25;0.25;;;;;;;14.95;46.05;99740.09;5014834;28;20038;-84
2022/09/21 02:13:45;;;;;;;;;;;;;;;15.16;46.13;99775.72;5013997;28;20034;-84
2022/09/21 02:16:38;;;;;;;0.20;0.20;;;;;;;15.35;46.34;99773.31;5013454;28;19917;-84
2022/09/21 02:19:21;;;;;;;0.20;0.20;;;;;;;15.49;45.98;99780.84;5013905;28;20049;-85
2022/09/21 02:22:06;;;;;;;0.30;0.30;;;;;;;15.19;46.24;99749.06;5008838;28;20026;-84
2022/09/21 02:24:46;;;;;;;0.50;0.50;;;;;;;15.41;45.68;99773.13;5013635;28;20496;-84
2022/09/21 02:27:29;;;;;;;0.20;0.20;;;;;;;15.44;45.88;99767.69;5013479;28;20180;-84
2022/09/21 02:30:05;;;;;;;0.47;0.47;;;;;;;15.34;46.13;99753.00;5014157;28;20034;-84
2022/09/21 02:32:39;;;;;;;;;;;;;;;15.38;47.71;99770.56;5014095;28;20030;-83
2022/09/21 02:35:18;;;;;;;0.10;0.10;;;;;;;15.06;48.05;99779.59;5013171;28;19917;-84
2022/09/21 02:37:55;;;;;;;0.25;0.25;;;;;;;14.85;48.90;99745.69;5013168;28;20083;-84
2022/09/21 02:40:36;;;;;;;0.40;0.40;;;;;;;14.95;48.51;99777.28;5013965;28;20033;-84
2022/09/21 02:43:11;;;;;;;1.17;0.60;;;;;;;14.75;48.69;99743.38;5013523;28;20116;-84
2022/09/21 02:45:44;;;;;;;0.23;0.23;;;;;;;14.61;49.13;99730.53;5013088;28;20118;-84
2022/09/21 02:48:53;;;;;;;0.52;0.52;;;;;;;15.04;48.07;99779.66;5013166;28;20038;-84
2022/09/21 02:51:29;;;;;;;0.55;0.40;;;;;;;14.98;47.69;99755.94;5010382;28;20038;-84
2022/09/21 02:53:57;;;;;;;0.30;0.30;;;;;;;15.11;47.12;99777.69;5013332;28;20077;-83
2022/09/21 02:56:23;;;;;;;0.38;0.38;;;;;;;15.10;47.43;99766.16;5013091;28;20022;-84
2022/09/21 02:58:55;;;;;;;6.03;1.05;;;;;;;15.15;46.56;99785.50;5013398;28;20040;-84
2022/09/21 03:01:23;;;;;;;2.58;1.15;;;;;;;15.01;47.23;99777.09;5012002;28;20519;-85
2022/09/21 03:03:49;;;;;;;0.30;0.30;;;;;;;14.88;47.28;99754.50;5012533;28;20036;-82
2022/09/21 03:06:14;;;;;;;3.30;1.60;;;;;;;14.90;47.03;99785.38;5012909;28;20492;-83
2022/09/21 03:08:40;;;;;;;1.48;1.38;;;;;;;14.80;46.84;99742.34;5012541;28;20034;-83
2022/09/21 03:11:06;;;;;;;1.10;1.00;;;;;;;15.01;47.16;99783.28;5013103;28;20037;-81
2022/09/21 03:13:31;;;;;;;;;;;;;;;15.00;47.32;99793.97;5013042;28;20492;-82
2022/09/21 03:16:02;;;;;;;0.10;0.10;;;;;;;15.02;47.12;99794.78;5012549;28;19975;-81
2022/09/21 03:18:28;;;;;;;0.20;0.20;;;;;;;14.83;47.72;99763.47;5012671;28;20599;-80
2022/09/21 03:20:54;;;;;;;0.45;0.45;;;;;;;14.90;47.32;99765.94;5012856;28;20065;-80
2022/09/21 03:23:19;;;;;;;0.55;0.55;;;;;;;14.89;47.50;99772.16;5012500;28;20072;-81
2022/09/21 03:25:45;;;;;;;;;;;;;;;15.27;47.25;99793.97;5013115;28;20029;-81
2022/09/21 03:28:12;;;;;;;1.13;1.13;;;;;;;14.99;47.23;99755.03;5011488;28;19916;-83
2022/09/21 03:30:38;;;;;;;0.20;0.20;;;;;;;14.75;47.76;99738.06;5003440;28;20037;-82
2022/09/21 03:33:04;;;;;;;0.30;0.30;;;;;;;14.88;48.07;99757.16;4994569;28;20057;-81
2022/09/21 03:35:30;;;;;;;0.68;0.68;;;;;;;14.56;48.12;99767.81;5011642;28;20040;-83
2022/09/21 03:37:56;;;;;;;0.82;0.80;;;;;;;14.55;48.60;99782.03;4993139;28;20042;-83
2022/09/21 03:40:22;;;;;;;0.30;0.30;;;;;;;14.47;48.71;99787.56;5012772;28;20034;-83
2022/09/21 03:42:48;;;;;;;0.47;0.47;;;;;;;14.29;48.89;99758.91;5012278;28;20045;-82
2022/09/21 03:45:13;;;;;;;;;;;;;;;14.61;49.02;99802.22;5012879;28;20038;-83
2022/09/21 03:47:39;;;;;;;0.70;0.70;;;;;;;14.27;49.89;99776.63;4994396;28;19917;-82
2022/09/21 03:50:05;;;;;;;;;;;;;;;14.43;49.94;99803.63;5006017;28;20046;-84
2022/09/21 03:52:31;;;;;;;0.75;0.75;;;;;;;14.45;49.75;99805.28;5011159;28;19964;-83
2022/09/21 03:54:57;;;;;;;0.20;0.20;;;;;;;14.27;50.11;99781.94;5012601;28;20473;-83
2022/09/21 03:57:22;;;;;;;;;;;;;;;14.55;49.90;99805.00;5011729;28;20037;-84
2022/09/21 03:59:48;;;;;;;0.32;0.32;;;;;;;14.30;50.33;99773.88;5012097;28;19917;-84
2022/09/21 04:02:14;;;;;;;0.30;0.30;;;;;;;14.33;49.82;99792.38;5010088;28;20439;-85
2022/09/21 04:04:40;;;;;;;0.38;0.38;;;;;;;14.21;50.36;99768.84;5011386;28;20034;-83
2022/09/21 04:07:05;;;;;;;0.30;0.30;;;;;;;14.35;51.27;99806.50;5011432;28;20045;-84
2022/09/21 04:09:31;;;;;;;0.82;0.82;;;;;;;13.87;51.36;99756.53;5011491;28;20037;-85
2022/09/21 04:11:56;;;;;;;0.50;0.50;;;;;;;13.96;51.93;99799.59;5011419;28;20045;-85
2022/09/21 04:14:22;;;;;;;0.45;0.45;;;;;;;14.21;51.08;99790.97;5012013;28;20026;-85
2022/09/21 04:16:47;;;;;;;;;;;;;;;14.31;51.52;99815.44;5012082;28;20416;-84
2022/09/21 04:19:13;;;;;;;1.85;1.00;;;;;;;14.04;51.74;99771.97;5002570;28;19924;-83
2022/09/21 04:21:38;;;;;;;0.40;0.40;;;;;;;14.18;51.81;99799.00;5001799;28;20030;-83
2022/09/21 04:24:04;;;;;;;0.38;0.38;;;;;;;14.30;50.85;99803.97;5006187;28;20030;-83
2022/09/21 04:26:34;;;;;;;0.30;0.30;;;;;;;14.36;51.82;99821.47;5009449;28;20547;-83
2022/09/21 04:28:59;;;;;;;0.20;0.20;;;;;;;14.15;51.50;99804.41;5008637;28;20026;-85
2022/09/21 04:31:26;;;;;;;0.38;0.38;;;;;;;14.09;52.50;99793.97;5007829;28;20037;-83
2022/09/21 04:33:54;;;;;;;1.15;1.15;;;;;;;14.30;51.72;99816.34;5008947;28;20058;-85
2022/09/21 04:36:21;;;;;;;0.30;0.30;;;;;;;14.40;51.96;99796.59;5009384;28;20034;-85
2022/09/21 04:38:47;;;;;;;0.28;0.28;;;;;;;14.12;52.50;99793.88;5011177;28;20040;-81
2022/09/21 04:41:14;;;;;;;0.85;0.85;;;;;;;14.16;52.56;99790.19;5010730;28;20496;-83
2022/09/21 04:43:47;;;;;;;0.80;0.80;;;;;;;14.36;52.51;99832.09;5011247;28;20113;-84
2022/09/21 04:46:15;;;;;;;0.45;0.45;;;;;;;14.30;52.05;99797.78;5011784;28;20025;-89
2022/09/21 04:48:42;;;;;;;0.55;0.55;;;;;;;14.33;52.35;99798.56;5011563;28;20038;-82
2022/09/21 04:51:08;;;;;;;0.70;0.70;;;;;;;14.42;52.30;99809.81;5010484;28;20061;-84
2022/09/21 04:53:36;;;;;;;0.32;0.32;;;;;;;14.43;52.52;99807.13;4994718;28;20036;-83
2022/09/21 04:56:03;;;;;;;1.55;1.45;;;;;;;14.36;52.60;99805.56;5011091;28;20037;-84
2022/09/21 04:58:28;;;;;;;3.83;2.05;;;;;;;14.51;53.25;99821.03;5010770;28;20038;-82
2022/09/21 05:00:54;;;;;;;0.50;0.50;;;;;;;14.55;52.86;99805.00;5010983;28;20030;-82
2022/09/21 05:03:21;;;;;;;1.85;1.35;;;;;;;14.48;52.79;99799.88;5010843;28;20033;-83
2022/09/21 05:05:54;;;;;;;9.93;1.52;;;;;;;14.74;52.84;99811.56;5011131;28;20049;-82
2022/09/21 05:11:11;;;;;;;1.58;1.48;;;;;;;15.38;53.62;99782.09;4997587;28;20053;-83
2022/09/21 05:13:38;;;;;;;2.25;1.27;;;;;;;15.78;51.75;99806.47;5008973;28;20037;-82
2022/09/21 05:16:04;;;;;;;1.35;1.25;;;;;;;16.06;51.86;99822.31;5009202;28;20026;-81
2022/09/21 05:18:29;;;;;;;2.03;1.27;;;;;;;15.98;51.95;99792.47;4990167;28;20057;-82
2022/09/21 05:20:56;;;;;;;2.08;0.77;;;;;;;16.06;50.65;99790.38;4991567;28;20033;-81
2022/09/21 05:23:25;;;;;;;7.63;1.08;;;;;;;15.97;49.69;99787.19;4991513;28;20112;-81
2022/09/21 05:25:51;;;;;;;1.13;1.02;;;;;;;16.18;49.31;99788.22;4991646;28;20026;-82
2022/09/21 05:28:17;;;;;;;1.27;1.15;;;;;;;16.09;49.96;99779.63;4991598;28;20481;-83
2022/09/21 05:30:45;;;;;;;0.38;0.38;;;;;;;16.16;49.14;99787.38;4991450;28;20448;-82
2022/09/21 05:33:16;;;;;;;1.20;1.15;;;;;;;16.15;49.29;99810.47;4991378;28;20104;-82
2022/09/21 05:35:54;;;;;;;2.45;2.28;;;;;;;15.90;50.79;99792.72;4991626;28;20493;-81
2022/09/21 05:38:20;;;;;;;0.30;0.30;;;;;;;15.74;50.05;99810.13;4991175;28;20121;-82
2022/09/21 05:40:49;;;;;;;0.52;0.52;;;;;;;15.64;50.57;99830.84;4990952;28;20133;-82
2022/09/21 05:43:15;;;;;;;1.33;1.23;;;;;;;15.50;49.88;99806.50;4994077;28;20042;-82
2022/09/21 05:45:56;;;;;;;1.00;0.90;;;;;;;15.45;50.09;99793.38;4994659;28;20473;-82
2022/09/21 05:48:42;;;;;;;1.20;0.70;;;;;;;15.36;50.59;99791.03;4994117;28;20051;-81
2022/09/21 05:51:31;;;;;;;2.25;1.17;;;;;;;15.70;49.85;99812.00;4994315;28;20034;-82
2022/09/21 05:54:06;;;;;;;0.52;0.52;;;;;;;15.92;48.91;99790.88;4994266;28;20077;-81
2022/09/21 05:56:38;;;;;;;0.40;0.40;;;;;;;16.47;48.90;99830.59;4995331;28;20038;-81
2022/09/21 05:59:21;;;;;;;1.08;1.00;;;;;;;16.40;47.33;99815.75;4994867;28;20038;-81
2022/09/21 06:01:50;;;;;;;0.40;0.40;;;;;;;16.07;49.08;99823.19;4994810;28;20026;-81
2022/09/21 06:04:15;;;;;;;0.35;0.35;;;;;;;16.17;48.09;99797.97;4994750;28;20033;-81
2022/09/21 06:06:41;;;;;;;0.30;0.30;;;;;;;15.92;48.79;99808.63;4994898;28;20035;-81
2022/09/21 06:09:06;;;;;;;0.10;0.10;;;;;;;15.92;49.28;99821.94;4994685;28;20022;-81
2022/09/21 06:11:32;;;;;;;1.25;1.17;;;;;;;15.84;47.91;99778.78;4994390;28;20420;-81
2022/09/21 06:13:59;;;;;;;0.52;0.52;;;;;;;15.49;48.03;99757.81;4994556;28;20038;-81
2022/09/21 06:16:25;;;;;;;8.68;1.40;;;;;;;15.71;47.66;99797.81;4994585;28;20031;-81
2022/09/21 06:18:50;;;;;;;0.57;0.57;;;;;;;16.13;48.96;99822.09;4994336;28;20034;-82
2022/09/21 06:21:16;;;;;;;0.70;0.65;;;;;;;16.08;47.94;99793.88;4994797;28;20046;-82
2022/09/21 06:23:41;;;;;;;0.38;0.38;;;;;;;15.75;46.64;99783.50;4994388;28;20507;-82
2022/09/21 06:26:06;;;;;;;1.10;1.10;;;;;;;15.95;47.12;99819.16;4993064;28;20054;-82
2022/09/21 06:28:32;;;;;;;0.28;0.28;;;;;;;16.09;47.82;99810.69;4994311;28;20041;-82
2022/09/21 06:30:58;;;;;;;0.57;0.40;;;;;;;15.79;48.22;99780.75;4994273;28;20042;-83
2022/09/21 06:33:23;;;;;;;11.90;0.95;;;;;;;15.69;47.10;99802.31;4993978;28;20127;-83
2022/09/21 06:35:59;;;;;;;0.43;0.43;;;;;;;15.95;47.99;99831.63;4994481;28;20038;-83
2022/09/21 06:38:26;;;;;;;0.45;0.45;;;;;;;15.75;48.20;99801.22;4994221;28;20030;-83
2022/09/21 06:40:52;;;;;;;0.10;0.10;;;;;;;15.82;46.89;99808.09;4992912;28;20424;-84
2022/09/21 06:43:18;;;;;;;1.13;1.00;;;;;;;16.16;48.36;99821.97;4993994;28;20467;-83
2022/09/21 06:45:55;;;;;;;0.60;0.40;;;;;;;16.31;48.29;99826.75;4993814;28;20030;-83
2022/09/21 06:48:21;;;;;;;1.38;1.02;;;;;;;15.96;47.42;99823.59;4993746;28;20129;-83
2022/09/21 06:50:47;;;;;;;1.27;1.17;;;;;;;15.96;46.78;99820.03;4994114;28;20042;-82
2022/09/21 06:53:13;;;;;;;;;;;;;;;16.38;47.36;99832.75;4993784;28;20049;-83
2022/09/21 06:55:38;;;;;;;0.73;0.73;;;;;;;16.22;46.41;99817.31;4993611;28;19917;-82
2022/09/21 06:58:04;;;;;;;0.57;0.57;;;;;;;16.25;47.23;99825.19;4993603;28;20031;-82
2022/09/21 07:00:30;;;;;;;0.20;0.20;;;;;;;16.07;46.29;99813.41;4994034;28;20412;-81
2022/09/21 07:02:55;;;;;;;0.30;0.30;;;;;;;15.78;47.21;99801.16;4993927;28;20030;-82
2022/09/21 07:05:21;;;;;;;0.40;0.40;;;;;;;16.36;47.17;99835.47;4994130;28;20037;-82
2022/09/21 07:07:46;;;;;;;0.20;0.20;;;;;;;16.46;46.99;99818.19;4993677;28;20030;-82
2022/09/21 07:10:12;;;;;;;0.93;0.90;;;;;;;16.59;46.20;99829.28;4993444;28;20080;-82
2022/09/21 07:12:37;;;;;;;0.30;0.30;;;;;;;16.33;45.89;99840.91;4993749;28;20485;-82
2022/09/21 07:15:03;;;;;;;;;;;;;;;16.13;46.63;99844.28;4993622;28;20083;-82
2022/09/21 07:17:37;;;;;;;2.47;0.93;;;;;;;15.89;46.29;99830.03;4993525;28;19914;-82
2022/09/21 07:20:04;;;;;;;2.30;1.98;;;;;;;16.01;45.63;99837.59;4993403;28;20523;-82
2022/09/21 07:22:31;;;;;;;0.25;0.25;;;;;;;15.88;46.61;99834.50;4993180;28;20428;-82
2022/09/21 07:24:57;;;;;;;0.85;0.85;;;;;;;15.78;46.50;99810.91;4993339;28;20034;-82
2022/09/21 07:27:24;;;;;;;0.35;0.35;;;;;;;15.62;46.29;99805.25;4992763;28;20042;-81
2022/09/21 07:29:50;;;;;;;0.20;0.20;;;;;;;16.04;45.82;99828.63;4993416;28;20117;-81
2022/09/21 07:32:16;;;;;;;0.93;0.65;;;;;;;16.13;46.12;99824.75;4993073;28;20173;-81
2022/09/21 07:34:41;;;;;;;0.22;0.22;;;;;;;16.19;46.47;99814.78;4992902;28;20030;-81
2022/09/21 07:37:07;;;;;;;0.68;0.68;;;;;;;16.27;45.12;99812.69;4975206;28;20092;-82
2022/09/21 07:39:32;;;;;;;0.22;0.22;;;;;;;15.86;45.53;99783.13;4992986;28;20034;-81
2022/09/21 07:41:58;;;;;;;0.10;0.10;;;;;;;16.05;45.39;99819.72;4992685;28;20026;-81
2022/09/21 07:44:24;;;;;;;0.30;0.30;;;;;;;16.38;45.26;99835.41;4992970;28;20031;-81
2022/09/21 07:46:50;;;;;;;0.20;0.20;;;;;;;16.53;45.44;99809.97;4993005;28;20032;-81
2022/09/21 07:49:16;;;;;;;0.25;0.25;;;;;;;16.57;44.78;99808.94;4992710;28;20051;-81
2022/09/21 07:51:42;;;;;;;0.20;0.20;;;;;;;16.76;44.56;99803.78;4992821;28;20034;-83
2022/09/21 07:54:09;;;;;;;0.10;0.10;;;;;;;17.39;43.44;99803.97;4992774;28;20037;-81
2022/09/21 07:56:38;;;;;;;0.30;0.30;;;;;;;17.66;42.36;99806.41;4992372;28;20030;-82
2022/09/21 07:59:07;;;;;;;0.10;0.10;;;;;;;17.90;41.75;99788.50;4992907;28;20034;-82
2022/09/21 08:01:38;;;;;;;0.30;0.30;;;;;;;18.15;41.19;99811.44;4992565;28;20030;-82
2022/09/21 08:04:06;;;;;;;0.20;0.20;;;;;;;17.99;40.36;99803.25;4991808;28;20030;-83
2022/09/21 08:06:34;;;;;;;0.20;0.20;;;;;;;17.62;41.45;99804.81;4991094;28;20479;-82
2022/09/21 08:09:00;;;;;;;0.20;0.20;;;;;;;17.49;42.87;99793.78;4992552;28;20460;-83
2022/09/21 08:11:29;;;;;;;0.20;0.20;;;;;;;17.96;42.38;99790.91;4992694;28;20031;-82
2022/09/21 08:13:57;;;;;;;0.30;0.30;;;;;;;17.91;40.73;99786.72;4992810;28;20026;-83
2022/09/21 08:16:24;;;;;;;0.30;0.30;;;;;;;17.87;41.19;99765.47;4992623;28;20031;-83
2022/09/21 08:18:50;;;;;;;0.40;0.40;;;;;;;18.78;41.52;99795.19;4992141;28;20500;-83
2022/09/21 08:21:16;;;;;;;0.10;0.10;;;;;;;19.12;40.88;99786.47;4992209;28;20057;-83
2022/09/21 08:23:42;;;;;;;0.20;0.20;;;;;;;19.29;39.28;99769.59;4992114;28;20515;-83
2022/09/21 08:26:11;;;;;;;0.13;0.13;;;;;;;19.47;39.97;99754.41;4992156;28;20471;-83
2022/09/21 08:28:37;;;;;;;0.20;0.20;;;;;;;19.35;37.81;99771.09;4992422;28;20035;-83
2022/09/21 08:31:07;;;;;;;0.00;0.00;;;;;;;19.11;36.98;99779.41;4992436;28;20034;-84
2022/09/21 08:33:33;;;;;;;0.50;0.17;;;;;;;18.90;38.16;99765.25;4992160;28;20085;-84
2022/09/21 08:36:00;;;;;;;0.10;0.10;;;;;;;18.95;38.42;99768.59;4992218;28;20508;-84
2022/09/21 08:38:26;;;;;;;0.70;0.20;;;;;;;18.87;38.57;99764.53;4992296;28;20477;-83
2022/09/21 08:40:52;;;;;;;0.35;0.35;;;;;;;18.84;37.85;99748.63;4992151;28;20030;-83
2022/09/21 08:43:34;;;;;;;0.10;0.10;;;;;;;18.94;39.75;99774.00;4992210;28;20034;-82
2022/09/21 08:46:04;;;;;;;0.20;0.20;;;;;;;18.68;39.71;99769.88;4992038;28;20070;-82
2022/09/21 08:48:36;;;;;;;0.10;0.10;;;;;;;18.79;38.36;99771.06;4991814;28;20397;-83
2022/09/21 08:51:07;;;;;;;0.20;0.20;;;;;;;18.40;38.45;99752.47;4991926;28;20413;-82
2022/09/21 08:53:42;;;;;;;0.70;0.70;;;;;;;18.55;38.51;99775.78;4992215;28;20496;-83
2022/09/21 08:56:12;;;;;;;0.10;0.10;;;;;;;18.94;39.54;99742.78;4991656;28;20031;-82
2022/09/21 08:58:42;;;;;;;0.13;0.13;;;;;;;19.26;39.14;99736.78;4991873;28;20585;-82
2022/09/21 09:01:34;;;;;;;0.38;0.38;;;;;;;19.67;37.06;99768.59;4991572;28;20050;-83
2022/09/21 09:04:10;;;;;;;0.60;0.60;;;;;;;19.25;36.80;99756.47;5004243;28;20038;-83
2022/09/21 09:06:54;;;;;;;0.38;0.38;;;;;;;19.24;37.14;99760.94;5002886;28;20041;-83
2022/09/21 09:09:54;;;;;;;0.10;0.10;;;;;;;19.36;36.81;99754.09;5011123;28;20026;-84
2022/09/21 09:12:47;;;;;;;0.05;0.05;;;;;;;18.98;36.57;99711.44;4993782;28;20444;-82
2022/09/21 09:15:27;;;;;;;0.30;0.30;;;;;;;19.42;37.55;99719.03;4999090;28;20412;-82
2022/09/21 09:18:11;;;;;;;0.20;0.20;;;;;;;19.90;36.67;99743.34;5004802;28;20512;-82
2022/09/21 09:20:40;;;;;;;0.10;0.10;;;;;;;19.86;37.27;99717.66;5003479;28;20036;-83
2022/09/21 09:23:18;;;;;;;0.43;0.43;;;;;;;19.56;38.03;99709.44;5010894;28;20076;-83
2022/09/21 09:25:49;;;;;;;0.40;0.40;;;;;;;19.25;34.71;99685.13;5002257;28;20030;-83
2022/09/21 09:28:31;;;;;;;0.30;0.30;;;;;;;19.42;34.90;99707.47;5004338;28;20662;-84
2022/09/21 09:31:20;;;;;;;0.10;0.10;;;;;;;19.61;34.79;99707.38;5013498;28;20554;-84
2022/09/21 09:33:55;;;;;;;0.10;0.10;;;;;;;19.45;36.28;99665.38;5003900;28;20048;-83
2022/09/21 09:36:22;;;;;;;0.85;0.73;;;;;;;19.63;37.13;99701.00;5014928;28;20034;-84
2022/09/21 09:39:00;;;;;;;0.47;0.38;;;;;;;19.57;36.60;99673.69;5014882;28;20065;-84
2022/09/21 09:42:00;;;;;;;0.10;0.10;;;;;;;19.80;35.34;99723.34;5014948;28;20091;-83
2022/09/21 09:45:10;;;;;;;0.10;0.10;;;;;;;20.12;36.64;99721.63;5014834;28;20061;-83
2022/09/21 09:48:11;;;;;;;0.10;0.10;;;;;;;19.91;34.73;99721.00;5010671;28;20038;-84
2022/09/21 09:50:39;;;;;;;0.22;0.22;;;;;;;20.10;34.92;99711.97;4977872;28;20057;-83
2022/09/21 09:53:17;;;;;;;0.10;0.10;;;;;;;20.62;33.81;99702.84;5010102;28;20120;-85
2022/09/21 09:55:49;;;;;;;0.05;0.05;;;;;;;20.08;33.35;99677.25;5010114;28;20026;-84
2022/09/21 09:58:19;;;;;;;0.10;0.10;;;;;;;20.07;33.54;99696.94;5010026;28;20045;-84
2022/09/21 10:00:46;;;;;;;0.10;0.10;;;;;;;20.01;32.97;99699.94;5010130;28;20029;-83
2022/09/21 10:03:22;;;;;;;0.20;0.20;;;;;;;19.94;32.67;99688.72;5010152;28;20096;-84
2022/09/21 10:05:48;;;;;;;0.10;0.10;;;;;;;20.03;33.70;99685.53;5010168;28;20273;-84
2022/09/21 10:08:35;;;;;;;0.25;0.22;;;;;;;19.94;32.63;99701.19;5010240;28;20172;-83
2022/09/21 10:11:02;;;;;;;0.10;0.10;;;;;;;20.04;33.21;99678.34;5010326;28;20108;-83
2022/09/21 10:13:32;;;;;;;0.40;0.40;;;;;;;20.38;33.60;99679.16;5010484;28;20526;-84
2022/09/21 10:16:01;;;;;;;0.00;0.00;;;;;;;20.23;33.74;99674.66;5009946;28;20030;-84
2022/09/21 10:18:37;;;;;;;0.43;0.43;;;;;;;20.42;32.04;99675.38;5009873;28;20049;-83
2022/09/21 10:21:06;;;;;;;;;;;;;;;20.85;32.43;99675.66;4993092;28;20566;-84
2022/09/21 10:23:35;;;;;;;0.10;0.10;;;;;;;21.02;32.34;99671.97;5010748;28;19989;-85
2022/09/21 10:26:09;;;;;;;0.30;0.30;;;;;;;20.89;30.95;99649.50;5009705;28;20030;-84
2022/09/21 10:28:35;;;;;;;0.10;0.10;;;;;;;20.69;32.03;99674.78;5009136;28;20125;-84
2022/09/21 10:31:15;;;;;;;0.00;0.00;;;;;;;20.86;31.38;99665.78;5009684;28;20065;-84
2022/09/21 10:34:01;;;;;;;0.10;0.10;;;;;;;21.26;33.29;99666.09;5009701;28;20069;-85
2022/09/21 10:36:29;;;;;;;0.40;0.15;;;;;;;21.02;33.84;99674.66;4998851;28;20054;-84
2022/09/21 10:38:55;;;;;;;0.20;0.20;;;;;;;21.16;31.85;99638.94;5009744;28;20044;-84
2022/09/21 10:41:21;;;;;;;0.20;0.20;;;;;;;21.37;32.06;99630.59;5009488;28;20104;-84
2022/09/21 10:43:49;;;;;;;0.00;0.00;;;;;;;21.45;32.25;99660.50;5009865;28;20076;-85
2022/09/21 10:46:15;;;;;;;1.45;0.75;;;;;;;21.69;33.10;99650.13;5009672;28;20042;-85
2022/09/21 10:48:44;;;;;;;1.42;1.35;;;;;;;21.94;31.84;99646.75;5009306;28;20053;-84
2022/09/21 10:51:26;;;;;;;0.05;0.05;;;;;;;21.67;32.62;99652.00;5009687;28;20034;-85
2022/09/21 10:53:51;;;;;;;0.10;0.10;;;;;;;21.48;32.03;99660.31;5009755;28;20041;-85
2022/09/21 10:56:17;;;;;;;0.10;0.10;;;;;;;21.24;32.25;99650.09;5009278;28;20033;-84
2022/09/21 10:59:20;;;;;;;1.35;0.25;;;;;;;20.90;32.63;99664.66;5009580;28;20033;-83
2022/09/21 11:01:48;;;;;;;0.20;0.15;;;;;;;20.75;32.53;99623.50;5009162;28;20037;-82
2022/09/21 11:04:35;;;;;;;0.63;0.60;;;;;;;21.17;34.89;99648.72;5008603;28;20420;-84
2022/09/21 11:07:40;;;;;;;0.10;0.10;;;;;;;21.08;32.07;99655.50;5009131;28;20045;-85
2022/09/21 11:10:14;;;;;;;0.10;0.10;;;;;;;21.05;33.88;99634.25;5005678;28;20042;-85
2022/09/21 11:13:18;;;;;;;0.10;0.10;;;;;;;21.61;34.63;99649.69;5009167;28;20037;-84
2022/09/21 11:16:09;;;;;;;0.05;0.05;;;;;;;21.46;32.23;99646.13;5001252;28;20041;-84
2022/09/21 11:18:44;;;;;;;0.20;0.20;;;;;;;21.19;33.09;99654.88;5009147;28;20037;-85
2022/09/21 11:21:28;;;;;;;0.10;0.10;;;;;;;20.48;32.22;99616.09;5008975;28;20037;-83
2022/09/21 11:24:18;;;;;;;0.00;0.00;;;;;;;20.52;32.03;99647.09;5008942;28;20045;-84
2022/09/21 11:26:53;;;;;;;0.10;0.10;;;;;;;20.57;32.99;99628.97;5009171;28;20500;-84
2022/09/21 11:29:25;;;;;;;0.15;0.15;;;;;;;20.72;32.64;99654.03;5008372;28;20116;-84
2022/09/21 11:32:08;;;;;;;0.10;0.10;;;;;;;20.67;33.02;99655.25;5009301;28;20554;-83
2022/09/21 11:34:36;;;;;;;0.00;0.00;;;;;;;21.05;33.82;99639.63;4991116;28;20163;-83
2022/09/21 11:37:17;;;;;;;0.10;0.10;;;;;;;21.19;34.62;99654.00;5008868;28;20551;-83
2022/09/21 11:40:01;;;;;;;0.22;0.20;;;;;;;21.08;32.78;99641.25;5008780;28;20042;-83
2022/09/21 11:42:44;;;;;;;0.10;0.10;;;;;;;21.03;32.00;99624.56;5008227;28;20028;-84
2022/09/21 11:45:50;;;;;;;0.00;0.00;;;;;;;20.91;32.15;99632.41;5008595;28;20159;-83
2022/09/21 11:48:31;;;;;;;0.00;0.00;;;;;;;20.75;33.25;99626.19;4986116;28;20061;-84
2022/09/21 11:50:56;;;;;;;0.05;0.05;;;;;;;20.52;33.16;99622.97;5008154;28;20030;-83
2022/09/21 11:53:27;;;;;;;0.10;0.10;;;;;;;20.11;34.70;99634.25;5008331;28;20030;-84
2022/09/21 11:56:21;;;;;;;0.20;0.20;;;;;;;20.31;36.17;99633.13;5008195;28;20088;-84
2022/09/21 11:59:09;;;;;;;0.30;0.30;;;;;;;20.20;34.14;99606.06;5007878;28;20034;-85